createdAt,value
2022-10-26T00:00:29.239Z,101332.50
2022-10-26T00:02:59.333Z,101325.56
2022-10-26T00:05:34.310Z,101327.31
2022-10-26T00:08:04.586Z,101339.53
2022-10-26T00:10:36.419Z,101336.91
2022-10-26T00:13:10.323Z,101344.75
2022-10-26T00:15:43.528Z,101358.66
2022-10-26T00:18:13.672Z,101355.16
2022-10-26T00:20:43.805Z,101342.13
2022-10-26T00:23:13.902Z,101332.59
2022-10-26T00:25:45.217Z,101361.28
2022-10-26T00:28:15.276Z,101346.50
2022-10-26T00:30:45.406Z,101354.31
2022-10-26T00:33:15.690Z,101361.28
2022-10-26T00:35:53.052Z,101358.66
2022-10-26T00:38:23.253Z,101345.63
2022-10-26T00:40:53.563Z,101350.84
2022-10-26T00:43:23.621Z,101362.13
2022-10-26T00:45:57.495Z,101359.50
2022-10-26T00:48:34.996Z,101351.66
2022-10-26T00:51:10.071Z,101354.28
2022-10-26T00:53:40.666Z,101357.78
2022-10-26T00:56:11.490Z,101356.06
2022-10-26T00:58:45.135Z,101352.59
2022-10-26T01:01:15.901Z,101343.84
2022-10-26T01:03:47.941Z,101348.22
2022-10-26T01:06:18.933Z,101335.16
2022-10-26T01:08:50.038Z,101342.13
2022-10-26T01:11:20.122Z,101334.25
2022-10-26T01:13:52.761Z,101351.63
2022-10-26T01:16:44.927Z,101342.13
2022-10-26T01:19:24.294Z,101359.47
2022-10-26T01:22:00.369Z,101365.59
2022-10-26T01:24:59.693Z,101361.25
2022-10-26T01:27:36.581Z,101359.53
2022-10-26T01:30:29.228Z,101359.56
2022-10-26T01:33:23.162Z,101362.13
2022-10-26T01:36:11.317Z,101350.84
2022-10-26T01:38:47.817Z,101360.38
2022-10-26T01:41:23.773Z,101362.06
2022-10-26T01:44:04.678Z,101356.91
2022-10-26T01:46:39.763Z,101358.66
2022-10-26T01:49:12.642Z,101351.72
2022-10-26T01:51:45.133Z,101357.78
2022-10-26T01:54:15.818Z,101353.44
2022-10-26T01:56:52.088Z,101346.50
2022-10-26T01:59:43.767Z,101354.28
2022-10-26T02:02:16.718Z,101355.13
2022-10-26T02:05:01.858Z,101359.50
2022-10-26T02:08:05.128Z,101340.38
2022-10-26T02:11:16.082Z,101350.81
2022-10-26T02:14:10.425Z,101337.75
2022-10-26T02:16:54.225Z,101336.91
2022-10-26T02:20:00.244Z,101347.31
2022-10-26T02:22:35.305Z,101354.22
2022-10-26T02:25:10.507Z,101366.44
2022-10-26T02:27:46.020Z,101366.47
2022-10-26T02:30:16.721Z,101349.94
2022-10-26T02:32:51.061Z,101356.91
2022-10-26T02:35:29.742Z,101347.34
2022-10-26T02:38:02.852Z,101344.78
2022-10-26T02:40:33.717Z,101348.25
2022-10-26T02:43:08.696Z,101353.47
2022-10-26T02:45:46.657Z,101360.44
2022-10-26T02:48:16.928Z,101363.00
2022-10-26T02:51:02.762Z,101381.31
2022-10-26T02:53:58.683Z,101362.16
2022-10-26T02:56:34.356Z,101369.13
2022-10-26T02:59:08.308Z,101374.34
2022-10-26T03:01:40.276Z,101370.00
2022-10-26T03:04:10.831Z,101390.88
2022-10-26T03:06:41.017Z,101392.63
2022-10-26T03:09:11.248Z,101391.78
2022-10-26T03:11:41.319Z,101390.91
2022-10-26T03:14:11.479Z,101393.53
2022-10-26T03:16:41.716Z,101385.66
2022-10-26T03:19:12.305Z,101402.22
2022-10-26T03:21:42.624Z,101382.19
2022-10-26T03:24:12.837Z,101409.19
2022-10-26T03:26:43.043Z,101404.81
2022-10-26T03:29:13.231Z,101402.22
2022-10-26T03:31:43.515Z,101394.44
2022-10-26T03:34:14.138Z,101415.31
2022-10-26T03:36:44.495Z,101426.59
2022-10-26T03:39:14.702Z,101424.00
2022-10-26T03:41:44.948Z,101424.00
2022-10-26T03:44:15.102Z,101411.81
2022-10-26T03:46:45.154Z,101424.00
2022-10-26T03:49:15.256Z,101412.72
2022-10-26T03:51:45.425Z,101425.75
2022-10-26T03:54:16.133Z,101424.00
2022-10-26T03:56:46.277Z,101430.06
2022-10-26T03:59:16.418Z,101427.50
2022-10-26T04:01:46.712Z,101443.16
2022-10-26T04:04:16.974Z,101432.69
2022-10-26T04:09:22.456Z,101420.50
2022-10-26T04:11:52.496Z,101437.91
2022-10-26T04:14:22.729Z,101444.03
2022-10-26T04:16:52.903Z,101444.88
2022-10-26T04:19:23.499Z,101440.53
2022-10-26T04:21:53.612Z,101437.06
2022-10-26T04:24:23.855Z,101437.06
2022-10-26T04:26:53.936Z,101441.41
2022-10-26T04:29:24.098Z,101434.44
2022-10-26T04:31:54.391Z,101424.91
2022-10-26T04:34:24.607Z,101428.38
2022-10-26T04:36:55.457Z,101424.00
2022-10-26T04:39:25.880Z,101437.06
2022-10-26T04:41:56.061Z,101425.78
2022-10-26T04:44:26.115Z,101445.75
2022-10-26T04:46:56.270Z,101434.44
2022-10-26T04:49:26.315Z,101451.00
2022-10-26T04:51:56.415Z,101433.59
2022-10-26T04:54:26.451Z,101449.22
2022-10-26T04:56:56.675Z,101441.41
2022-10-26T04:59:26.717Z,101462.28
2022-10-26T05:01:57.276Z,101450.06
2022-10-26T05:04:27.485Z,101457.94
2022-10-26T05:06:57.626Z,101464.94
2022-10-26T05:09:27.720Z,101462.31
2022-10-26T05:11:57.871Z,101467.53
2022-10-26T05:14:28.036Z,101464.03
2022-10-26T05:16:58.381Z,101456.19
2022-10-26T05:19:28.447Z,101471.03
2022-10-26T05:21:58.657Z,101471.00
2022-10-26T05:24:28.744Z,101466.66
2022-10-26T05:26:58.873Z,101472.75
2022-10-26T05:29:29.017Z,101471.00
2022-10-26T05:31:59.143Z,101474.50
2022-10-26T05:34:29.289Z,101477.13
2022-10-26T05:36:59.445Z,101469.28
2022-10-26T05:39:29.541Z,101489.28
2022-10-26T05:41:59.681Z,101488.41
2022-10-26T05:44:29.791Z,101473.63
2022-10-26T05:47:01.811Z,101491.06
2022-10-26T05:49:33.920Z,101496.28
2022-10-26T05:52:11.118Z,101495.41
2022-10-26T05:54:41.614Z,101473.63
2022-10-26T05:57:13.079Z,101496.25
2022-10-26T05:59:43.529Z,101501.47
2022-10-26T06:02:30.866Z,101502.34
2022-10-26T06:05:05.260Z,101498.00
2022-10-26T06:07:35.666Z,101508.44
2022-10-26T06:10:06.203Z,101511.94
2022-10-26T06:12:36.667Z,101514.56
2022-10-26T06:15:07.962Z,101522.38
2022-10-26T06:17:43.719Z,101525.88
2022-10-26T06:20:38.297Z,101532.84
2022-10-26T06:23:45.970Z,101531.06
2022-10-26T06:26:35.550Z,101532.84
2022-10-26T06:29:31.131Z,101536.31
2022-10-26T06:32:01.823Z,101526.72
2022-10-26T06:34:37.331Z,101536.28
2022-10-26T06:37:08.076Z,101523.25
2022-10-26T06:39:43.714Z,101544.16
2022-10-26T06:42:14.243Z,101528.47
2022-10-26T06:44:44.825Z,101546.78
2022-10-26T06:47:42.018Z,101558.06
2022-10-26T06:50:39.819Z,101557.19
2022-10-26T06:53:26.192Z,101546.78
2022-10-26T06:55:58.059Z,101564.16
2022-10-26T06:58:33.604Z,101556.34
2022-10-26T07:01:04.230Z,101565.88
2022-10-26T07:03:34.393Z,101556.31
2022-10-26T07:06:05.919Z,101551.97
2022-10-26T07:08:36.126Z,101553.72
2022-10-26T07:11:06.400Z,101563.31
2022-10-26T07:13:36.466Z,101552.84
2022-10-26T07:16:06.908Z,101562.44
2022-10-26T07:18:37.024Z,101561.56
2022-10-26T07:21:07.257Z,101563.28
2022-10-26T07:23:37.366Z,101552.84
2022-10-26T07:26:07.596Z,101559.81
2022-10-26T07:28:37.819Z,101555.44
2022-10-26T07:31:08.285Z,101550.25
2022-10-26T07:33:41.457Z,101566.78
2022-10-26T07:36:12.775Z,101560.69
2022-10-26T07:38:42.947Z,101561.59
2022-10-26T07:41:13.150Z,101570.25
2022-10-26T07:43:45.642Z,101564.19
2022-10-26T07:46:15.754Z,101572.88
2022-10-26T07:48:45.867Z,101572.88
2022-10-26T07:51:16.698Z,101581.56
2022-10-26T07:53:47.200Z,101586.81
2022-10-26T07:56:17.382Z,101584.19
2022-10-26T07:58:47.506Z,101582.44
2022-10-26T08:01:17.924Z,101586.78
2022-10-26T08:03:48.209Z,101597.25
2022-10-26T08:06:18.340Z,101596.38
2022-10-26T08:08:48.986Z,101583.28
2022-10-26T08:11:19.550Z,101576.31
2022-10-26T08:13:53.632Z,101591.09
2022-10-26T08:16:24.240Z,101594.56
2022-10-26T08:18:54.356Z,101601.53
2022-10-26T08:21:36.207Z,101580.63
2022-10-26T08:24:09.676Z,101601.50
2022-10-26T08:26:39.837Z,101598.91
2022-10-26T08:29:09.985Z,101603.25
2022-10-26T08:31:40.248Z,101592.81
2022-10-26T08:34:10.526Z,101605.84
2022-10-26T08:36:40.791Z,101607.59
2022-10-26T08:39:11.102Z,101609.34
2022-10-26T08:41:47.775Z,101610.19
2022-10-26T08:44:42.663Z,101586.72
2022-10-26T08:47:19.891Z,101623.28
2022-10-26T08:50:03.165Z,101618.03
2022-10-26T08:52:46.514Z,101622.38
2022-10-26T08:55:21.268Z,101609.28
2022-10-26T08:57:53.707Z,101607.53
2022-10-26T09:00:26.138Z,101609.28
2022-10-26T09:02:56.529Z,101608.41
2022-10-26T09:05:39.597Z,101601.41
2022-10-26T09:08:30.081Z,101617.91
2022-10-26T09:11:16.504Z,101609.16
2022-10-26T09:13:46.497Z,101612.56
2022-10-26T09:16:30.490Z,101603.03
2022-10-26T09:19:03.556Z,101630.88
2022-10-26T09:21:53.721Z,101626.53
2022-10-26T09:24:24.227Z,101630.88
2022-10-26T09:27:00.695Z,101642.19
2022-10-26T09:29:43.248Z,101617.81
2022-10-26T09:32:37.307Z,101635.19
2022-10-26T09:35:19.542Z,101638.69
2022-10-26T09:38:06.673Z,101646.53
2022-10-26T09:40:44.841Z,101646.47
2022-10-26T09:43:21.046Z,101632.50
2022-10-26T09:45:52.922Z,101652.47
2022-10-26T09:48:47.684Z,101626.28
2022-10-26T09:51:18.508Z,101637.59
2022-10-26T09:53:48.744Z,101645.41
2022-10-26T09:56:19.808Z,101639.31
2022-10-26T09:59:02.325Z,101650.63
2022-10-26T10:01:38.439Z,101658.44
2022-10-26T10:04:16.798Z,101653.97
2022-10-26T10:06:49.053Z,101643.50
2022-10-26T10:09:22.114Z,101653.91
2022-10-26T10:11:55.534Z,101632.94
2022-10-26T10:14:37.364Z,101655.63
2022-10-26T10:17:21.393Z,101638.22
2022-10-26T10:19:52.295Z,101648.63
2022-10-26T10:22:26.612Z,101634.66
2022-10-26T10:24:58.174Z,101646.84
2022-10-26T10:27:29.750Z,101657.31
2022-10-26T10:30:20.953Z,101646.78
2022-10-26T10:33:12.814Z,101644.97
2022-10-26T10:35:51.148Z,101648.50
2022-10-26T10:38:22.058Z,101633.63
2022-10-26T10:40:55.240Z,101651.88
2022-10-26T10:46:27.247Z,101653.78
2022-10-26T10:49:07.482Z,101654.66
2022-10-26T10:51:40.492Z,101658.22
2022-10-26T10:54:39.226Z,101667.78
2022-10-26T10:57:12.144Z,101662.53
2022-10-26T11:00:04.665Z,101653.81
2022-10-26T11:02:49.914Z,101657.25
2022-10-26T11:05:50.576Z,101662.47
2022-10-26T11:08:32.483Z,101652.06
2022-10-26T11:11:27.425Z,101668.66
2022-10-26T11:14:04.457Z,101669.59
2022-10-26T11:16:46.611Z,101667.84
2022-10-26T11:19:42.406Z,101665.16
2022-10-26T11:22:19.164Z,101680.03
2022-10-26T11:25:02.315Z,101669.50
2022-10-26T11:27:43.886Z,101662.59
2022-10-26T11:30:19.977Z,101679.13
2022-10-26T11:32:56.955Z,101669.50
2022-10-26T11:35:40.068Z,101680.84
2022-10-26T11:38:39.232Z,101682.56
2022-10-26T11:41:29.705Z,101676.44
2022-10-26T11:44:30.141Z,101685.19
2022-10-26T11:47:12.744Z,101679.03
2022-10-26T11:50:06.789Z,101681.72
2022-10-26T11:52:49.738Z,101686.97
2022-10-26T11:55:22.853Z,101680.84
2022-10-26T11:57:54.472Z,101693.00
2022-10-26T12:00:26.416Z,101680.75
2022-10-26T12:03:08.399Z,101679.81
2022-10-26T12:05:41.251Z,101679.75
2022-10-26T12:08:23.436Z,101681.44
2022-10-26T12:11:25.824Z,101687.41
2022-10-26T12:14:04.968Z,101691.72
2022-10-26T12:16:51.459Z,101685.56
2022-10-26T12:19:24.968Z,101697.72
2022-10-26T12:21:55.371Z,101683.72
2022-10-26T12:24:29.028Z,101693.25
2022-10-26T12:27:00.787Z,101676.63
2022-10-26T12:29:46.687Z,101704.53
2022-10-26T12:32:28.699Z,101700.16
2022-10-26T12:35:01.727Z,101696.75
2022-10-26T12:37:37.037Z,101705.38
2022-10-26T12:40:52.575Z,101701.84
2022-10-26T12:43:22.829Z,101711.44
2022-10-26T12:46:14.848Z,101704.47
2022-10-26T12:48:51.814Z,101694.06
2022-10-26T12:51:21.973Z,101704.59
2022-10-26T12:53:58.216Z,101704.63
2022-10-26T12:56:49.923Z,101696.81
2022-10-26T12:59:40.468Z,101710.03
2022-10-26T13:02:11.357Z,101707.44
2022-10-26T13:05:12.404Z,101701.31
2022-10-26T13:07:43.213Z,101705.69
2022-10-26T13:10:13.222Z,101707.41
2022-10-26T13:13:05.454Z,101713.56
2022-10-26T13:15:40.532Z,101700.41
2022-10-26T13:18:21.716Z,101696.00
2022-10-26T13:20:52.201Z,101715.94
2022-10-26T13:23:27.433Z,101711.53
2022-10-26T13:26:19.758Z,101706.25
2022-10-26T13:28:55.382Z,101720.22
2022-10-26T13:31:39.729Z,101718.50
2022-10-26T13:34:12.655Z,101719.47
2022-10-26T13:36:51.640Z,101717.00
2022-10-26T13:39:26.233Z,101724.03
2022-10-26T13:41:59.347Z,101712.72
2022-10-26T13:44:53.615Z,101734.50
2022-10-26T13:47:48.858Z,101735.47
2022-10-26T13:50:25.563Z,101746.00
2022-10-26T13:53:11.443Z,101735.56
2022-10-26T13:55:52.428Z,101736.47
2022-10-26T13:58:31.512Z,101737.41
2022-10-26T14:01:10.626Z,101735.69
2022-10-26T14:03:41.996Z,101733.06
2022-10-26T14:06:24.116Z,101737.41
2022-10-26T14:08:58.987Z,101725.16
2022-10-26T14:11:36.114Z,101737.41
2022-10-26T14:14:06.292Z,101736.59
2022-10-26T14:16:36.442Z,101717.47
2022-10-26T14:19:07.092Z,101752.34
2022-10-26T14:21:40.960Z,101740.22
2022-10-26T14:24:27.507Z,101755.06
2022-10-26T14:27:15.894Z,101754.31
2022-10-26T14:30:03.780Z,101749.16
2022-10-26T14:32:37.222Z,101755.28
2022-10-26T14:35:12.829Z,101764.91
2022-10-26T14:38:00.487Z,101761.47
2022-10-26T14:40:35.686Z,101759.69
2022-10-26T14:43:06.517Z,101770.19
2022-10-26T14:45:54.701Z,101758.03
2022-10-26T14:48:32.446Z,101766.75
2022-10-26T14:51:17.332Z,101765.00
2022-10-26T14:53:52.761Z,101747.63
2022-10-26T14:56:30.859Z,101758.06
2022-10-26T14:59:13.452Z,101761.53
2022-10-26T15:02:17.259Z,101753.69
2022-10-26T15:05:02.745Z,101771.13
2022-10-26T15:07:37.827Z,101762.44
2022-10-26T15:10:47.088Z,101767.66
2022-10-26T15:13:26.419Z,101773.78
2022-10-26T15:16:06.875Z,101766.84
2022-10-26T15:18:38.745Z,101770.31
2022-10-26T15:21:24.810Z,101763.38
2022-10-26T15:23:57.082Z,101776.44
2022-10-26T15:26:27.253Z,101770.38
2022-10-26T15:28:57.576Z,101780.81
2022-10-26T15:31:32.660Z,101787.81
2022-10-26T15:34:06.485Z,101783.47
2022-10-26T15:36:37.204Z,101762.56
2022-10-26T15:39:07.763Z,101773.88
2022-10-26T15:41:45.918Z,101781.72
2022-10-26T15:44:21.360Z,101766.03
2022-10-26T15:46:51.798Z,101772.16
2022-10-26T15:49:22.143Z,101782.63
2022-10-26T15:51:52.449Z,101778.31
2022-10-26T15:54:22.594Z,101789.59
2022-10-26T15:56:53.541Z,101784.41
2022-10-26T15:59:23.775Z,101790.50
2022-10-26T16:01:54.129Z,101780.94
2022-10-26T16:04:24.398Z,101782.69
2022-10-26T16:06:59.310Z,101772.19
2022-10-26T16:09:29.526Z,101793.16
2022-10-26T16:11:59.565Z,101780.06
2022-10-26T16:14:33.470Z,101794.88
2022-10-26T16:17:08.054Z,101780.94
2022-10-26T16:19:38.751Z,101810.59
2022-10-26T16:22:09.599Z,101797.53
2022-10-26T16:24:40.352Z,101805.38
2022-10-26T16:27:10.444Z,101811.50
2022-10-26T16:29:42.921Z,101814.97
2022-10-26T16:32:13.285Z,101814.13
2022-10-26T16:34:51.639Z,101812.38
2022-10-26T16:37:23.073Z,101820.22
2022-10-26T16:39:53.257Z,101820.22
2022-10-26T16:42:23.550Z,101825.44
2022-10-26T16:44:57.587Z,101818.50
2022-10-26T16:47:35.768Z,101823.72
2022-10-26T16:50:08.033Z,101822.81
2022-10-26T16:52:39.314Z,101820.22
2022-10-26T16:55:09.878Z,101837.69
2022-10-26T16:57:39.945Z,101833.28
2022-10-26T17:00:10.560Z,101842.91
2022-10-26T17:02:40.890Z,101850.75
2022-10-26T17:05:11.057Z,101853.38
2022-10-26T17:07:41.203Z,101851.63
2022-10-26T17:10:11.274Z,101857.75
2022-10-26T17:12:41.378Z,101864.72
2022-10-26T17:15:13.768Z,101860.38
2022-10-26T17:17:46.116Z,101867.34
2022-10-26T17:20:17.302Z,101864.72
2022-10-26T17:22:47.514Z,101868.22
2022-10-26T17:25:17.797Z,101865.59
2022-10-26T17:27:47.967Z,101873.44
2022-10-26T17:30:18.358Z,101867.34
2022-10-26T17:32:48.793Z,101866.47
2022-10-26T17:35:20.152Z,101868.22
2022-10-26T17:37:50.607Z,101879.56
2022-10-26T17:40:20.749Z,101875.19
2022-10-26T17:42:50.856Z,101878.69
2022-10-26T17:45:20.970Z,101876.94
2022-10-26T17:47:51.416Z,101877.81
2022-10-26T17:50:21.957Z,101877.81
2022-10-26T17:52:52.028Z,101881.28
2022-10-26T17:55:22.594Z,101883.91
2022-10-26T17:57:53.029Z,101882.19
2022-10-26T18:00:25.928Z,101887.41
2022-10-26T18:02:56.172Z,101890.88
2022-10-26T18:05:26.978Z,101886.53
2022-10-26T18:07:58.080Z,101881.28
2022-10-26T18:10:44.122Z,101893.50
2022-10-26T18:13:14.301Z,101898.75
2022-10-26T18:15:45.462Z,101894.38
2022-10-26T18:18:15.787Z,101904.81
2022-10-26T18:20:45.853Z,101913.53
2022-10-26T18:23:16.030Z,101910.06
2022-10-26T18:25:46.088Z,101920.53
2022-10-26T18:28:16.187Z,101912.66
2022-10-26T18:30:46.355Z,101927.50
2022-10-26T18:33:16.507Z,101934.44
2022-10-26T18:35:47.151Z,101934.44
2022-10-26T18:38:17.181Z,101928.34
2022-10-26T18:40:53.466Z,101946.66
2022-10-26T18:43:23.897Z,101937.94
2022-10-26T18:46:14.095Z,101943.16
2022-10-26T18:48:46.441Z,101944.91
2022-10-26T18:51:19.189Z,101939.66
2022-10-26T18:53:50.077Z,101938.78
2022-10-26T18:56:22.122Z,101949.22
2022-10-26T18:58:55.654Z,101953.56
2022-10-26T19:01:31.797Z,101957.06
2022-10-26T19:04:04.962Z,101950.94
2022-10-26T19:06:37.375Z,101961.38
2022-10-26T19:09:08.419Z,101956.13
2022-10-26T19:11:39.154Z,101961.34
2022-10-26T19:14:10.945Z,101973.53
2022-10-26T19:16:45.874Z,101975.28
2022-10-26T19:19:18.501Z,101976.09
2022-10-26T19:21:49.784Z,101982.19
2022-10-26T19:24:22.556Z,101972.56
2022-10-26T19:26:53.958Z,101977.75
2022-10-26T19:29:25.888Z,101974.25
2022-10-26T19:31:56.593Z,101981.22
2022-10-26T19:34:26.973Z,101989.94
2022-10-26T19:36:57.063Z,101994.25
2022-10-26T19:39:28.280Z,101998.59
2022-10-26T19:41:58.474Z,102002.97
2022-10-26T19:44:28.552Z,101995.94
2022-10-26T19:46:59.027Z,102000.28
2022-10-26T19:49:29.736Z,102000.28
2022-10-26T19:52:01.656Z,101997.63
2022-10-26T19:54:31.758Z,102001.13
2022-10-26T19:57:01.893Z,102012.44
2022-10-26T19:59:32.077Z,102020.25
2022-10-26T20:02:02.886Z,102021.06
2022-10-26T20:04:40.983Z,102016.69
2022-10-26T20:07:13.328Z,102016.69
2022-10-26T20:09:43.648Z,102025.41
2022-10-26T20:12:14.604Z,102016.66
2022-10-26T20:14:44.711Z,102016.59
2022-10-26T20:17:14.996Z,102027.06
2022-10-26T20:19:45.184Z,102019.25
2022-10-26T20:22:15.361Z,102003.50
2022-10-26T20:24:45.439Z,102007.91
2022-10-26T20:27:15.970Z,102007.88
2022-10-26T20:29:46.074Z,102020.91
2022-10-26T20:32:16.472Z,102015.63
2022-10-26T20:34:47.439Z,102033.97
2022-10-26T20:37:18.584Z,102039.16
2022-10-26T20:39:49.022Z,102036.53
2022-10-26T20:42:25.087Z,102032.16
2022-10-26T20:45:26.858Z,102045.25
2022-10-26T20:47:59.032Z,102038.22
2022-10-26T20:50:30.561Z,102037.34
2022-10-26T20:53:12.826Z,102046.91
2022-10-26T20:56:00.380Z,102030.34
2022-10-26T20:58:47.317Z,102039.91
2022-10-26T21:01:32.650Z,102032.91
2022-10-26T21:04:04.881Z,102025.00
2022-10-26T21:06:40.605Z,102035.50
2022-10-26T21:09:11.170Z,102030.28
2022-10-26T21:11:45.633Z,102040.69
2022-10-26T21:14:15.795Z,102043.31
2022-10-26T21:16:45.905Z,102039.81
2022-10-26T21:19:17.063Z,102037.22
2022-10-26T21:21:47.485Z,102046.75
2022-10-26T21:24:17.732Z,102049.31
2022-10-26T21:26:47.935Z,102042.38
2022-10-26T21:29:18.442Z,102045.00
2022-10-26T21:31:48.614Z,102046.69
2022-10-26T21:34:18.700Z,102044.94
2022-10-26T21:36:48.948Z,102029.19
2022-10-26T21:39:19.036Z,102035.28
2022-10-26T21:41:49.889Z,102030.03
2022-10-26T21:44:35.642Z,102043.97
2022-10-26T21:47:11.300Z,102036.97
2022-10-26T21:52:17.086Z,102043.03
2022-10-26T21:54:47.573Z,102043.91
2022-10-26T21:57:17.694Z,102031.63
2022-10-26T21:59:48.388Z,102035.91
2022-10-26T22:02:18.980Z,102055.09
2022-10-26T22:04:49.188Z,102055.91
2022-10-26T22:07:20.283Z,102055.00
2022-10-26T22:10:07.691Z,102050.69
2022-10-26T22:12:40.352Z,102035.84
2022-10-26T22:15:10.824Z,102041.09
2022-10-26T22:17:41.477Z,102041.94
2022-10-26T22:20:12.473Z,102043.66
2022-10-26T22:22:42.542Z,102041.94
2022-10-26T22:25:12.639Z,102047.16
2022-10-26T22:27:42.865Z,102048.03
2022-10-26T22:30:13.306Z,102047.13
2022-10-26T22:32:43.532Z,102055.81
2022-10-26T22:35:29.960Z,102058.41
2022-10-26T22:38:00.243Z,102061.91
2022-10-26T22:40:30.283Z,102060.09
2022-10-26T22:43:00.433Z,102063.50
2022-10-26T22:45:30.622Z,102063.44
2022-10-26T22:48:00.906Z,102063.38
2022-10-26T22:50:30.951Z,102066.91
2022-10-26T22:53:01.224Z,102065.13
2022-10-26T22:55:31.297Z,102056.41
2022-10-26T22:58:01.400Z,102070.34
2022-10-26T23:00:31.919Z,102062.53
2022-10-26T23:03:01.948Z,102066.91
2022-10-26T23:05:32.199Z,102075.63
2022-10-26T23:08:02.397Z,102065.13
2022-10-26T23:10:32.438Z,102061.69
2022-10-26T23:15:33.519Z,102072.16
2022-10-26T23:18:04.170Z,102069.53
2022-10-26T23:20:35.221Z,102069.59
2022-10-26T23:23:05.366Z,102059.09
2022-10-26T23:25:35.401Z,102067.84
2022-10-26T23:28:05.546Z,102069.59
2022-10-26T23:30:37.146Z,102063.44
2022-10-26T23:33:07.650Z,102073.91
2022-10-26T23:35:37.955Z,102073.97
2022-10-26T23:40:53.125Z,102070.53
2022-10-26T23:43:24.134Z,102068.75
2022-10-26T23:45:58.736Z,102073.13
2022-10-26T23:48:31.574Z,102079.22
2022-10-26T23:51:01.660Z,102074.00
2022-10-26T23:53:31.888Z,102077.50
2022-10-26T23:56:02.641Z,102068.81
2022-10-26T23:58:33.028Z,102074.97
